Time;durP1;ratioP1;P1;durP2;ratioP2;P2;SDS_P1;SDS_P2;PMS_P1;PMS_P2;Temp;Humidity;BMP_temperature;BMP_pressure;BME280_temperature;BME280_humidity;BME280_pressure;Samples;Min_cycle;Max_cycle;Signal;HPM_P1;HPM_P2
2022/10/28 05:57:27;;;;;;;0.50;0.50;;;17.00;77.30;;;16.91;64.21;95903.47;5105390;27;21060;-78
2022/10/28 05:59:54;;;;;;;0.50;0.50;;;17.00;78.70;;;17.58;63.54;95905.13;5035218;28;20204;-79
2022/10/28 06:02:22;;;;;;;0.50;0.50;;;17.30;78.60;;;18.18;62.06;95890.72;5051764;28;20210;-80
2022/10/28 06:04:50;;;;;;;0.50;0.50;;;17.70;78.20;;;18.69;61.15;95884.34;5051680;28;20629;-80
2022/10/28 06:07:17;;;;;;;0.50;0.50;;;18.20;77.70;;;19.15;60.42;95890.25;5067946;28;20195;-80
2022/10/28 06:09:45;;;;;;;0.40;0.40;;;18.60;77.30;;;19.58;59.75;95893.84;5052554;28;20211;-82
2022/10/28 06:12:14;;;;;;;0.40;0.40;;;19.00;76.90;;;19.88;59.19;95881.59;5054727;28;20203;-83
2022/10/28 06:14:41;;;;;;;0.50;0.50;;;19.30;76.30;;;20.18;58.66;95880.75;5050923;28;20199;-83
2022/10/28 06:17:08;;;;;;;0.50;0.50;;;19.70;76.80;;;20.48;58.08;95889.50;5051003;28;20242;-83
2022/10/28 06:19:36;;;;;;;0.40;0.40;;;19.90;75.60;;;20.72;58.05;95888.72;5034725;28;20206;-83
2022/10/28 06:22:03;;;;;;;0.40;0.40;;;20.20;75.30;;;20.93;57.50;95898.81;5051037;28;20213;-82
2022/10/28 06:24:30;;;;;;;0.40;0.40;;;20.40;75.00;;;21.10;57.06;95901.56;5051346;28;20629;-81
2022/10/28 06:26:57;;;;;;;0.40;0.40;;;20.70;74.70;;;21.20;56.91;95886.81;5050847;28;20679;-81
2022/10/28 06:29:25;;;;;;;0.40;0.40;;;20.80;74.30;;;21.43;56.70;95896.63;5066435;28;20633;-81
2022/10/28 06:31:54;;;;;;;0.50;0.50;;;21.00;74.00;;;21.57;56.25;95891.88;5051033;28;20221;-81
2022/10/28 06:34:21;;;;;;;0.50;0.50;;;21.20;73.80;;;21.70;56.04;95901.44;5051096;28;20217;-81
2022/10/28 06:36:48;;;;;;;0.30;0.30;;;21.30;73.50;;;21.80;55.78;95900.81;5050850;28;20206;-81
2022/10/28 06:39:16;;;;;;;0.43;0.43;;;21.40;73.30;;;21.83;55.22;95882.47;5051908;28;20598;-80
2022/10/28 06:41:45;;;;;;;0.40;0.40;;;21.60;73.10;;;21.96;55.13;95900.06;5067315;28;20188;-80
2022/10/28 06:44:12;;;;;;;0.40;0.40;;;21.70;72.90;;;22.08;55.51;95897.31;5067288;28;20203;-80
2022/10/28 06:46:39;;;;;;;0.40;0.40;;;21.80;72.70;;;22.18;55.29;95899.34;5034046;28;20230;-81
2022/10/28 06:49:07;;;;;;;0.50;0.50;;;21.80;72.50;;;22.22;54.73;95895.97;5050851;28;20212;-81
2022/10/28 06:51:35;;;;;;;0.50;0.50;;;21.90;72.20;;;22.33;54.47;95912.19;5050812;28;20197;-81
2022/10/28 06:54:02;;;;;;;0.40;0.40;;;22.00;72.20;;;22.32;54.31;95902.53;5050615;28;20192;-81
2022/10/28 06:56:29;;;;;;;0.50;0.50;;;22.10;71.90;;;22.37;54.23;95906.13;5050264;28;20241;-81
2022/10/28 06:58:57;;;;;;;0.40;0.40;;;22.20;71.90;;;22.42;54.10;95912.63;5033894;28;20200;-81
2022/10/28 07:01:24;;;;;;;0.40;0.40;;;22.20;71.70;;;22.53;54.11;95923.25;5050331;28;20195;-81
2022/10/28 07:03:52;;;;;;;0.40;0.40;;;22.30;71.50;;;22.57;53.89;95923.56;5066690;28;20266;-81
2022/10/28 07:06:20;;;;;;;0.40;0.40;;;22.30;71.40;;;22.55;54.02;95915.78;5050159;28;20235;-80
2022/10/28 07:08:47;;;;;;;0.47;0.47;;;22.40;71.30;;;22.65;53.81;95928.50;5037202;28;20200;-82
2022/10/28 07:11:15;;;;;;;0.30;0.30;;;22.40;71.10;;;22.55;53.64;95906.97;5037365;28;20197;-81
2022/10/28 07:13:42;;;;;;;0.40;0.40;;;22.40;71.00;;;22.68;53.41;95920.00;5037004;28;20260;-80
2022/10/28 07:16:14;;;;;;;0.40;0.40;;;22.50;70.90;;;22.68;53.19;95913.84;5037117;28;20184;-80
2022/10/28 07:18:41;;;;;;;0.50;0.50;;;22.50;70.80;;;22.76;53.27;95926.00;5035391;28;20188;-80
2022/10/28 07:21:08;;;;;;;0.40;0.40;;;22.60;70.70;;;22.73;53.11;95916.59;5036464;28;20232;-80
2022/10/28 07:23:36;;;;;;;0.50;0.50;;;22.50;70.60;;;22.76;53.05;95915.31;5037135;28;20499;-81
2022/10/28 07:26:03;;;;;;;0.40;0.40;;;22.60;70.50;;;22.81;52.98;95924.22;5037121;28;20216;-80
2022/10/28 07:28:31;;;;;;;0.40;0.40;;;22.60;70.40;;;22.83;53.25;95923.97;5037284;28;20307;-81
2022/10/28 07:31:02;;;;;;;0.45;0.45;;;22.60;70.40;;;22.84;52.73;95920.25;5053551;28;20190;-81
2022/10/28 07:33:30;;;;;;;0.40;0.40;;;22.70;70.20;;;22.85;53.05;95927.19;5036541;28;20263;-81
2022/10/28 07:35:57;;;;;;;0.50;0.50;;;22.70;70.30;;;22.81;52.69;95915.38;5036746;28;20206;-80
2022/10/28 07:38:25;;;;;;;0.47;0.47;;;22.70;70.20;;;22.83;52.50;95916.75;5053713;28;20220;-84
2022/10/28 07:40:52;;;;;;;0.40;0.40;;;22.70;70.20;;;22.85;52.52;95920.00;5020503;28;20207;-81
2022/10/28 07:43:19;;;;;;;0.40;0.40;;;22.70;70.00;;;22.93;52.45;95920.63;5032623;23;20252;-80
2022/10/28 07:45:47;;;;;;;0.45;0.45;;;22.80;70.10;;;22.84;52.75;95910.34;5017664;28;20202;-81
2022/10/28 07:48:16;;;;;;;0.52;0.52;;;22.80;70.00;;;22.96;52.40;95920.94;5001140;28;20200;-81
2022/10/28 07:50:46;;;;;;;0.40;0.40;;;22.80;69.90;;;22.95;52.12;95927.34;5000839;28;20296;-80
2022/10/28 07:53:13;;;;;;;0.50;0.50;;;22.80;69.80;;;22.93;52.33;95917.97;4999944;28;20641;-79
2022/10/28 07:55:57;;;;;;;0.40;0.40;;;22.80;69.80;;;22.98;51.89;95924.19;4969777;28;20509;-78
2022/10/28 07:58:24;;;;;;;0.40;0.40;;;22.80;69.60;;;22.94;52.07;95925.72;4985160;28;20188;-80
2022/10/28 08:00:52;;;;;;;0.40;0.40;;;22.80;69.60;;;22.96;52.18;95914.78;4984465;28;20556;-77
2022/10/28 08:03:20;;;;;;;0.30;0.30;;;22.90;69.60;;;23.02;52.15;95921.81;4984340;28;20224;-78
2022/10/28 08:05:47;;;;;;;0.50;0.50;;;22.90;69.50;;;22.97;51.78;95911.88;5001241;28;20273;-79
2022/10/28 08:08:14;;;;;;;0.50;0.50;;;22.90;69.50;;;23.06;51.81;95922.13;4987715;28;20219;-80
2022/10/28 08:10:41;;;;;;;0.40;0.40;;;22.90;69.50;;;23.01;52.19;95914.88;4984783;28;20282;-81
2022/10/28 08:13:09;;;;;;;0.40;0.40;;;22.90;69.40;;;23.07;52.13;95921.09;4983965;28;20211;-80
2022/10/28 08:15:37;;;;;;;0.40;0.40;;;22.90;69.30;;;23.02;51.84;95919.97;5000558;28;20255;-81
2022/10/28 08:18:04;;;;;;;0.60;0.60;;;22.90;69.30;;;23.09;51.81;95921.66;5000241;28;20670;-80
2022/10/28 08:20:31;;;;;;;0.40;0.40;;;22.90;69.20;;;23.07;51.79;95911.22;4999197;28;20652;-81
2022/10/28 08:22:58;;;;;;;0.32;0.32;;;22.90;69.20;;;23.05;51.67;95907.16;5000215;28;20209;-79
2022/10/28 08:25:32;;;;;;;0.50;0.50;;;23.00;69.20;;;23.13;51.83;95922.78;5017082;28;20190;-79
2022/10/28 08:27:59;;;;;;;0.40;0.40;;;23.00;69.10;;;23.14;51.96;95919.03;5033137;28;20221;-79
2022/10/28 08:30:27;;;;;;;0.30;0.30;;;23.00;69.10;;;23.14;51.84;95922.56;5032374;28;20189;-81
2022/10/28 08:32:56;;;;;;;0.40;0.40;;;23.00;69.10;;;23.14;51.55;95922.56;4996990;28;20189;-79
2022/10/28 08:35:24;;;;;;;0.45;0.45;;;23.00;69.10;;;23.10;51.69;95916.06;5000344;28;20206;-79
2022/10/28 08:37:53;;;;;;;0.47;0.47;;;23.00;69.00;;;23.16;51.42;95925.81;4984260;28;20211;-80
2022/10/28 08:40:30;;;;;;;0.40;0.40;;;23.00;69.00;;;23.18;51.33;95922.91;5000254;28;20592;-80
2022/10/28 08:43:17;;;;;;;0.40;0.40;;;23.00;68.90;;;23.17;51.27;95922.06;4999824;28;20252;-79
2022/10/28 08:46:02;;;;;;;0.40;0.40;;;23.00;68.80;;;23.16;51.03;95914.25;4998728;28;20655;-80
2022/10/28 08:48:35;;;;;;;0.35;0.35;;;23.00;68.80;;;23.19;51.37;95929.84;5016379;28;20189;-76
2022/10/28 08:51:48;;;;;;;0.40;0.40;;;23.00;68.70;;;23.16;51.32;95920.44;4999555;28;20625;-77
2022/10/28 08:54:38;;;;;;;0.50;0.50;;;23.00;68.70;;;23.18;51.43;95923.69;5024155;28;20246;-81
2022/10/28 08:57:16;;;;;;;0.40;0.40;;;23.00;68.70;;;23.18;51.48;95930.94;5000178;28;20210;-78
2022/10/28 08:59:45;;;;;;;0.47;0.47;;;23.00;69.60;;;23.22;51.29;95933.88;5001417;28;20223;-77
2022/10/28 09:02:25;;;;;;;0.40;0.40;;;23.00;68.60;;;23.21;51.09;95941.13;5018249;28;20201;-79
2022/10/28 09:05:17;;;;;;;0.60;0.60;;;23.10;68.80;;;23.19;51.22;95940.56;4985186;28;20177;-78
2022/10/28 09:07:44;;;;;;;0.40;0.40;;;23.10;68.60;;;23.24;51.19;95939.81;4999992;28;20197;-78
2022/10/28 09:10:15;;;;;;;0.40;0.40;;;23.10;68.60;;;23.25;51.15;95941.44;4984353;28;20201;-80
2022/10/28 09:13:27;;;;;;;0.50;0.50;;;23.10;68.60;;;23.18;51.27;95922.91;4981175;28;20212;-79
2022/10/28 09:16:26;;;;;;;0.57;0.57;;;23.10;68.50;;;23.24;51.05;95942.50;4976072;28;20213;-79
2022/10/28 09:18:56;;;;;;;0.60;0.60;;;23.10;68.50;;;23.25;51.12;95944.13;4980715;28;20185;-81
2022/10/28 09:22:16;;;;;;;0.47;0.47;;;23.10;68.50;;;23.23;50.80;95940.88;4979544;28;20206;-81
2022/10/28 09:25:04;;;;;;;0.50;0.50;;;23.10;68.40;;;23.24;50.93;95934.47;4979271;28;20206;-81
2022/10/28 09:28:11;;;;;;;0.43;0.43;;;23.10;68.40;;;23.23;50.74;95949.72;4964423;28;20600;-82
2022/10/28 09:30:56;;;;;;;0.43;0.43;;;23.10;68.40;;;23.23;51.16;95943.53;4974139;28;20221;-81
2022/10/28 09:33:49;;;;;;;0.40;0.40;;;23.10;68.30;;;23.24;50.82;95946.00;4983290;28;20198;-79
2022/10/28 09:36:28;;;;;;;0.50;0.50;;;23.10;68.40;;;23.26;50.87;95951.09;4967655;28;20657;-79
2022/10/28 09:42:28;;;;;;;0.50;0.50;;;23.10;68.40;;;23.25;51.07;95960.19;5014056;28;20220;-79
2022/10/28 09:45:03;;;;;;;0.50;0.50;;;23.10;68.40;;;23.22;50.88;95950.78;5030634;28;20308;-80
2022/10/28 09:47:46;;;;;;;0.40;0.40;;;23.10;68.50;;;23.29;51.06;95955.94;5016125;28;20669;-80
2022/10/28 09:50:20;;;;;;;0.40;0.40;;;23.10;68.50;;;23.28;50.98;95954.34;5032009;28;20187;-79
2022/10/28 09:53:13;;;;;;;0.40;0.40;;;23.10;68.70;;;23.31;51.05;95962.69;5016721;28;20218;-79
2022/10/28 09:55:40;;;;;;;0.50;0.50;;;23.10;68.50;;;23.24;51.17;95948.66;5032627;28;20193;-79
2022/10/28 09:58:11;;;;;;;0.50;0.50;;;23.20;68.60;;;23.36;50.81;95969.97;5016419;28;20599;-81
2022/10/28 10:00:40;;;;;;;0.40;0.40;;;23.20;68.50;;;23.37;50.66;95963.56;5016293;28;20292;-81
2022/10/28 10:03:07;;;;;;;0.40;0.40;;;23.20;68.50;;;23.36;50.92;95948.53;5014629;28;20676;-79
2022/10/28 10:05:49;;;;;;;0.40;0.40;;;23.20;68.50;;;23.41;50.63;95954.00;5016882;28;20196;-79
2022/10/28 10:08:19;;;;;;;0.50;0.50;;;23.20;68.40;;;23.41;50.60;95951.31;5032011;28;20231;-80
2022/10/28 10:11:01;;;;;;;0.40;0.40;;;23.20;68.40;;;23.44;50.68;95953.47;5016499;28;20193;-79
2022/10/28 10:13:34;;;;;;;0.38;0.38;;;23.20;68.20;;;23.45;50.72;95960.47;5017303;28;20576;-79
2022/10/28 10:16:20;;;;;;;0.40;0.40;;;23.20;68.30;;;23.41;50.69;95942.44;5016858;28;20219;-79
2022/10/28 10:18:52;;;;;;;0.50;0.50;;;23.20;68.10;;;23.47;50.45;95954.84;5016081;28;20185;-79
2022/10/28 10:21:50;;;;;;;0.43;0.43;;;23.20;68.20;;;23.46;50.87;95954.03;5000121;28;20212;-79
2022/10/28 10:24:29;;;;;;;0.50;0.50;;;23.30;68.20;;;23.45;50.06;95943.59;5016374;28;20596;-79
2022/10/28 10:27:21;;;;;;;0.40;0.40;;;23.30;68.10;;;23.46;50.54;95948.69;5016424;28;20201;-79
2022/10/28 10:29:52;;;;;;;0.40;0.40;;;23.30;68.10;;;23.46;50.44;95948.69;5016187;28;20211;-79
2022/10/28 10:32:32;;;;;;;0.40;0.40;;;23.30;68.10;;;23.44;50.51;95931.25;5018073;28;20194;-79
2022/10/28 10:35:24;;;;;;;0.35;0.35;;;23.30;68.10;;;23.47;50.53;95933.41;5015874;28;20189;-81
2022/10/28 10:37:55;;;;;;;0.40;0.40;;;23.30;68.00;;;23.48;50.46;95938.53;5015423;28;20198;-81
2022/10/28 10:40:32;;;;;;;0.40;0.40;;;23.30;68.10;;;23.42;50.28;95925.34;5013922;28;20238;-80
2022/10/28 10:43:32;;;;;;;0.40;0.40;;;23.20;67.90;;;23.47;50.38;95944.97;5015773;28;20205;-80
2022/10/28 10:46:05;;;;;;;0.40;0.40;;;23.30;68.00;;;23.49;50.36;95939.34;5017603;28;20197;-80
2022/10/28 10:48:35;;;;;;;0.30;0.30;;;23.30;68.00;;;23.48;50.52;95935.84;5017688;28;20657;-79
2022/10/28 10:51:24;;;;;;;0.35;0.35;;;23.30;68.00;;;23.47;50.34;95949.50;5021440;28;20245;-79
2022/10/28 10:53:59;;;;;;;0.40;0.40;;;23.30;67.90;;;23.50;50.48;95935.63;5021200;28;20202;-79
2022/10/28 10:56:32;;;;;;;0.43;0.43;;;23.30;67.80;;;23.49;50.38;95940.16;5021251;28;20230;-79
2022/10/28 10:59:03;;;;;;;0.40;0.40;;;23.30;68.80;;;23.49;50.34;95936.66;5037506;28;20614;-79
2022/10/28 11:01:37;;;;;;;0.40;0.40;;;23.30;68.30;;;23.47;50.06;95928.06;5021042;28;20199;-79
2022/10/28 11:04:07;;;;;;;0.30;0.30;;;23.30;67.80;;;23.51;50.25;95937.25;5020988;28;20193;-79
2022/10/28 11:06:41;;;;;;;0.35;0.35;;;23.30;67.90;;;23.52;50.32;95930.81;5021043;28;20223;-79
2022/10/28 11:09:35;;;;;;;0.40;0.40;;;23.30;67.80;;;23.47;50.27;95920.88;5020946;28;20265;-79
2022/10/28 11:12:24;;;;;;;0.40;0.40;;;23.30;67.80;;;23.50;49.96;95922.22;5020523;28;20201;-79
2022/10/28 11:14:58;;;;;;;0.47;0.47;;;23.30;67.70;;;23.48;49.88;95921.66;5020932;28;20189;-79
2022/10/28 11:17:31;;;;;;;0.40;0.40;;;23.30;67.60;;;23.53;49.81;95923.59;5037088;28;20294;-79
2022/10/28 11:20:28;;;;;;;0.40;0.40;;;23.30;67.70;;;23.51;49.93;95926.53;5036433;28;20191;-79
2022/10/28 11:23:42;;;;;;;0.50;0.50;;;23.30;67.70;;;23.50;50.23;95917.66;5020453;28;20194;-79
2022/10/28 11:26:14;;;;;;;0.40;0.40;;;23.30;67.60;;;23.45;49.99;95906.91;5004922;28;20624;-79
2022/10/28 11:29:02;;;;;;;0.40;0.40;;;23.30;67.60;;;23.50;49.99;95914.19;5020216;28;20254;-78
2022/10/28 11:31:48;;;;;;;0.40;0.40;;;23.30;67.60;;;23.50;50.04;95919.56;5020843;28;20184;-79
2022/10/28 11:34:50;;;;;;;0.38;0.38;;;23.30;67.50;;;23.47;49.92;95909.31;5037378;28;20223;-79
2022/10/28 11:37:35;;;;;;;0.50;0.50;;;23.30;67.60;;;23.50;49.93;95906.16;5004441;28;20654;-79
2022/10/28 11:40:32;;;;;;;0.50;0.50;;;23.30;67.60;;;23.49;49.84;95910.69;5020586;28;20736;-79
2022/10/28 11:43:21;;;;;;;0.45;0.45;;;23.30;67.50;;;23.49;49.83;95907.22;5020317;28;20200;-79
2022/10/28 11:46:20;;;;;;;0.40;0.40;;;23.30;67.50;;;23.48;50.15;95902.91;5020884;28;20252;-79
2022/10/28 11:49:33;;;;;;;0.55;0.55;;;23.30;67.50;;;23.47;50.11;95910.16;5020456;28;20215;-79
2022/10/28 11:52:27;;;;;;;0.40;0.40;;;23.30;67.50;;;23.48;49.92;95902.91;5004019;28;20539;-79
2022/10/28 11:55:01;;;;;;;0.40;0.40;;;23.30;67.40;;;23.47;50.07;95901.28;5036690;28;20210;-79
2022/10/28 11:58:20;;;;;;;0.40;0.40;;;23.30;67.50;;;23.45;49.63;95906.09;5019147;28;20180;-80
2022/10/28 12:01:05;;;;;;;0.40;0.40;;;23.30;67.40;;;23.48;49.98;95903.72;5017107;28;20227;-80
2022/10/28 12:04:08;;;;;;;0.60;0.60;;;23.30;67.40;;;23.44;49.81;95889.22;5016536;28;20275;-80
2022/10/28 12:07:05;;;;;;;0.30;0.30;;;23.30;67.40;;;23.37;49.79;95879.75;5032600;28;20196;-80
2022/10/28 12:09:56;;;;;;;0.40;0.40;;;23.30;67.40;;;23.49;49.95;95885.78;5015947;28;20255;-80
2022/10/28 12:13:04;;;;;;;0.40;0.40;;;23.30;67.40;;;23.46;50.10;95879.06;5016469;28;20250;-80
2022/10/28 12:16:17;;;;;;;0.40;0.40;;;23.30;67.40;;;23.47;49.75;95882.56;5000297;28;20203;-79
2022/10/28 12:19:26;;;;;;;0.30;0.30;;;23.30;67.40;;;23.47;50.06;95883.38;5015797;28;20200;-80
2022/10/28 12:22:18;;;;;;;0.40;0.40;;;23.30;67.40;;;23.43;49.83;95870.72;5032524;28;20212;-82
2022/10/28 12:24:45;;;;;;;0.32;0.32;;;23.30;67.40;;;23.46;49.70;95870.22;4999748;28;20204;-79
2022/10/28 12:27:25;;;;;;;0.40;0.40;;;23.30;67.40;;;23.51;49.73;95878.34;4999650;28;20270;-82
2022/10/28 12:30:26;;;;;;;0.50;0.50;;;23.30;67.40;;;23.54;50.02;95874.34;5015642;28;20657;-80
2022/10/28 12:33:04;;;;;;;0.50;0.50;;;23.30;67.40;;;23.54;49.97;95875.13;5015981;28;20255;-79
2022/10/28 12:35:37;;;;;;;0.40;0.40;;;23.40;67.40;;;23.56;49.72;95874.88;4999794;28;20192;-79
2022/10/28 12:38:17;;;;;;;0.40;0.40;;;23.40;67.40;;;23.52;49.59;95865.75;5031858;28;20205;-76
2022/10/28 12:40:54;;;;;;;0.30;0.30;;;23.40;67.30;;;23.58;49.59;95875.44;5015439;28;20239;-76
2022/10/28 12:43:48;;;;;;;0.40;0.40;;;23.40;67.30;;;23.57;49.48;95868.47;5015536;28;20713;-80
2022/10/28 12:47:16;;;;;;;0.40;0.40;;;23.40;67.30;;;23.56;49.85;95873.03;5015922;28;20246;-81
2022/10/28 12:49:56;;;;;;;0.55;0.55;;;23.40;67.30;;;23.60;49.65;95854.59;5007371;28;20240;-77
2022/10/28 12:52:29;;;;;;;0.50;0.50;;;23.50;67.30;;;23.60;49.64;95870.66;5012301;28;20521;-77
2022/10/28 12:55:07;;;;;;;0.40;0.40;;;23.40;67.20;;;23.62;49.55;95866.66;4995568;28;20208;-77
2022/10/28 12:57:36;;;;;;;0.40;0.40;;;23.40;67.30;;;23.56;49.66;95842.75;4979896;28;20213;-77
2022/10/28 13:00:15;;;;;;;0.40;0.40;;;23.50;67.30;;;23.60;49.65;95851.91;4995635;28;20639;-76
2022/10/28 13:02:56;;;;;;;0.40;0.40;;;23.50;67.30;;;23.65;49.57;95860.00;4995473;28;20199;-76
2022/10/28 13:05:36;;;;;;;0.47;0.47;;;23.50;67.30;;;23.63;49.66;95854.91;4995483;28;20177;-76
2022/10/28 13:08:21;;;;;;;0.40;0.40;;;23.50;67.20;;;23.66;49.64;95862.41;4996173;28;20304;-77
2022/10/28 13:11:19;;;;;;;0.45;0.45;;;23.50;67.30;;;23.66;49.31;95864.28;4996874;28;20243;-77
2022/10/28 13:14:17;;;;;;;0.55;0.55;;;23.50;67.20;;;23.67;49.76;95858.69;4996592;28;20203;-77
2022/10/28 13:17:15;;;;;;;0.50;0.50;;;23.50;67.20;;;23.65;50.33;95863.47;5011564;28;20199;-77
2022/10/28 13:20:06;;;;;;;0.47;0.47;;;23.50;67.20;;;23.67;49.51;95865.91;4995222;28;20182;-77
2022/10/28 13:22:58;;;;;;;0.50;0.50;;;23.50;67.10;;;23.67;49.54;95863.25;4995206;28;20204;-77
2022/10/28 13:25:51;;;;;;;0.45;0.45;;;23.50;67.20;;;23.66;49.39;95862.41;4995589;28;20193;-77
2022/10/28 13:28:20;;;;;;;0.40;0.40;;;23.50;67.20;;;23.67;49.56;95858.69;4995020;28;20231;-77
2022/10/28 13:31:01;;;;;;;0.47;0.47;;;23.50;67.20;;;23.69;49.84;95860.31;4995570;28;20185;-77
2022/10/28 13:33:30;;;;;;;0.40;0.40;;;23.50;67.20;;;23.69;49.62;95865.66;4995118;28;20188;-77
2022/10/28 13:36:15;;;;;;;0.40;0.40;;;23.50;67.10;;;23.71;49.52;95861.66;4995383;28;20189;-76
2022/10/28 13:38:49;;;;;;;0.40;0.40;;;23.50;67.10;;;23.71;48.96;95860.88;5011139;28;20212;-76
2022/10/28 13:41:35;;;;;;;0.50;0.50;;;23.50;67.10;;;23.73;49.39;95867.59;4996024;28;20595;-77
2022/10/28 13:44:08;;;;;;;0.40;0.40;;;23.50;67.10;;;23.74;49.53;95861.19;4983270;28;20280;-78
2022/10/28 13:47:14;;;;;;;0.30;0.30;;;23.50;67.00;;;23.72;49.47;95865.97;5003362;28;20658;-78
2022/10/28 13:50:05;;;;;;;0.47;0.47;;;23.50;67.00;;;23.72;49.43;95868.66;5008793;28;20650;-78
2022/10/28 13:52:47;;;;;;;0.50;0.50;;;23.50;67.00;;;23.74;49.27;95865.72;5036760;28;20200;-78
2022/10/28 14:00:27;;;;;;;0.40;0.40;;;23.50;67.00;;;23.63;49.60;95860.25;5036886;23;20242;-76
2022/10/28 14:02:58;;;;;;;0.40;0.40;;;23.50;67.10;;;23.60;49.62;95846.56;5030250;28;20574;-80
2022/10/28 14:05:35;;;;;;;0.40;0.40;;;23.50;67.90;;;23.62;49.44;95853.28;5027796;28;20322;-79
2022/10/28 14:08:07;;;;;;;0.50;0.50;;;23.50;66.70;;;23.53;49.20;95840.59;5033809;28;20706;-81
2022/10/28 14:10:39;;;;;;;0.40;0.40;;;23.50;66.60;;;23.47;49.07;95848.56;5034022;28;20271;-82
2022/10/28 14:13:18;;;;;;;0.40;0.40;;;23.50;66.40;;;23.43;49.30;95855.47;5033960;28;20199;-80
2022/10/28 20:46:37;;;;;;;0.60;0.60;;;17.30;77.40;;;17.22;64.32;95867.53;5083275;28;20557;-75
2022/10/28 20:49:09;;;;;;;0.50;0.50;;;17.20;78.90;;;17.89;63.21;95863.69;5068335;28;20180;-75
2022/10/28 20:51:40;;;;;;;0.60;0.60;;;17.60;78.90;;;18.52;62.12;95860.19;5071801;28;20663;-78
2022/10/28 20:54:10;;;;;;;0.60;0.60;;;18.00;78.50;;;19.07;61.01;95858.63;5064926;28;20195;-75
2022/10/28 21:01:37;;;;;;;0.50;0.50;;;19.00;77.40;;;20.22;59.07;95857.94;5043547;23;20246;-79
2022/10/28 21:04:08;;;;;;;0.50;0.50;;;19.70;76.60;;;20.56;58.89;95852.88;5016752;28;20544;-78
2022/10/28 21:06:37;;;;;;;0.45;0.45;;;20.00;76.30;;;20.85;58.63;95850.34;5016235;28;20188;-79
2022/10/28 21:09:05;;;;;;;0.47;0.47;;;20.30;75.90;;;21.07;58.14;95845.22;5015959;28;20195;-79
2022/10/28 21:11:32;;;;;;;0.45;0.45;;;20.60;75.60;;;21.34;57.72;95844.69;5015908;28;20211;-79
2022/10/28 21:14:00;;;;;;;0.40;0.40;;;20.80;75.30;;;21.56;57.02;95844.84;5033086;28;20283;-79
2022/10/28 21:16:29;;;;;;;0.50;0.50;;;21.10;75.00;;;21.69;56.83;95831.22;5015830;28;20203;-79
2022/10/28 21:18:58;;;;;;;0.43;0.43;;;21.30;74.70;;;21.89;56.74;95835.31;5016320;28;20287;-78
2022/10/28 21:21:26;;;;;;;0.40;0.40;;;21.50;74.40;;;22.12;56.58;95836.19;5032260;28;20205;-79
2022/10/28 21:23:53;;;;;;;0.50;0.50;;;21.60;74.10;;;22.26;56.34;95828.69;5014992;28;20271;-77
2022/10/28 21:26:21;;;;;;;0.50;0.50;;;21.80;73.90;;;22.34;55.54;95821.06;5014409;28;20563;-77
2022/10/28 21:28:52;;;;;;;0.40;0.40;;;22.00;73.70;;;22.51;55.72;95821.09;5014616;28;20192;-77
2022/10/28 21:31:20;;;;;;;0.40;0.40;;;22.10;73.30;;;22.60;55.24;95820.66;4997930;28;20215;-77
2022/10/28 21:33:47;;;;;;;0.40;0.40;;;22.30;73.20;;;22.74;55.10;95824.63;5010756;28;20239;-77
2022/10/28 21:36:18;;;;;;;0.40;0.40;;;22.40;73.00;;;22.82;55.02;95818.03;4994804;28;20226;-77
2022/10/28 21:38:46;;;;;;;0.40;0.40;;;22.50;72.80;;;22.94;54.86;95829.41;4978558;28;20201;-77
